KCAO/CAO METAR and TAF weather

Enter ICAO airport designator
Station Type Date Time Source
KCAO METAR 2021/08/05 03:55 UTC NOAA

KCAO 050355Z AUTO 21008KT 10SM CLR 16/12 A3027 RMK AO2 SLP207 T01560122


Station Type Date Time Source
KCAO Decoded METAR 2021/08/05 03:55 UTC NOAA

CLAYTON MUNICIPAL AIRPARK, NM, United States (KCAO) 36-27N 103-09W 1514M
Aug 04, 2021 - 11:55 PM EDT / 2021.08.05 0355 UTC
Wind: from the SSW (210 degrees) at 9 MPH (8 KT):0
Visibility: 10 mile(s):0
Sky conditions: clear
Temperature: 60.1 F (15.6 C)
Dew Point: 54.0 F (12.2 C)
Relative Humidity: 80%
Pressure (altimeter): 30.27 in. Hg (1025 hPa)
ob: KCAO 050355Z AUTO 21008KT 10SM CLR 16/12 A3027 RMK AO2 SLP207 T01560122
cycle: 4

Station Type Date Time Source
KCAO TAF UTC NOAA

Error!

Example: see airport list